TimeCDT,TemperatureF,Dew PointF,Humidity,Sea Level PressureIn,VisibilityMPH,Wind Direction,Wind SpeedMPH,Gust SpeedMPH,PrecipitationIn,Events,Conditions,WindDirDegrees,DateUTC
12:15 AM,75.2,68.0,78,29.69,10.0,ENE,6.9,-,N/A,Thunderstorm,Thunderstorm,60,2013-06-26 05:15:00
12:35 AM,71.6,66.2,83,29.71,-9999.0,NW,10.4,20.7,N/A,,Mostly Cloudy,320,2013-06-26 05:35:00
12:56 AM,69.8,64.4,83,29.68,10.0,NNW,5.8,-,N/A,Thunderstorm,Thunderstorm,340,2013-06-26 05:56:00
1:16 AM,69.8,62.6,78,29.67,10.0,East,5.8,-,N/A,Thunderstorm,Scattered Clouds,90,2013-06-26 06:16:00
1:35 AM,69.8,62.6,78,29.66,10.0,East,4.6,-,N/A,Thunderstorm,Clear,90,2013-06-26 06:35:00
1:55 AM,69.8,62.6,78,29.67,10.0,East,5.8,-,N/A,,Clear,90,2013-06-26 06:55:00
2:15 AM,71.6,62.6,73,29.67,10.0,East,3.5,-,N/A,,Scattered Clouds,100,2013-06-26 07:15:00
2:36 AM,71.6,64.4,78,29.71,10.0,WNW,5.8,-,N/A,Thunderstorm,Thunderstorm,290,2013-06-26 07:36:00
2:55 AM,64.4,60.8,88,29.73,2.0,NNW,20.7,35.7,0.11,Rain-Thunderstorm,Heavy Thunderstorms and Rain,330,2013-06-26 07:55:00
3:15 AM,60.8,60.8,100,29.72,5.0,North,16.1,21.9,0.06,Rain-Thunderstorm,Thunderstorms and Rain,350,2013-06-26 08:15:00
3:35 AM,62.6,60.8,94,29.71,10.0,NNE,9.2,-,0.08,Rain-Thunderstorm,Light Thunderstorms and Rain,20,2013-06-26 08:35:00
3:56 AM,62.6,60.8,94,29.72,10.0,ENE,3.5,-,N/A,Thunderstorm,Unknown,70,2013-06-26 08:56:00
4:15 AM,64.4,60.8,88,29.71,10.0,ENE,5.8,-,N/A,Rain,Light Rain,60,2013-06-26 09:15:00
4:35 AM,62.6,60.8,94,29.68,10.0,ESE,8.1,-,0.01,Rain,Light Rain,120,2013-06-26 09:35:00
4:56 AM,64.4,62.6,94,29.65,10.0,SE,11.5,-,N/A,Rain,Light Rain,130,2013-06-26 09:56:00
5:15 AM,64.4,62.6,94,29.65,10.0,South,9.2,-,N/A,,Clear,170,2013-06-26 10:15:00
5:35 AM,62.6,62.6,100,29.66,10.0,SSE,5.8,-,N/A,,Clear,150,2013-06-26 10:35:00
5:56 AM,64.4,62.6,94,29.67,10.0,SE,5.8,-,N/A,,Clear,140,2013-06-26 10:56:00
6:15 AM,62.6,62.6,100,29.68,10.0,ESE,4.6,-,N/A,,Clear,110,2013-06-26 11:15:00
6:35 AM,64.4,62.6,94,29.69,10.0,South,4.6,-,N/A,,Clear,180,2013-06-26 11:35:00
6:56 AM,64.4,62.6,94,29.70,10.0,Calm,Calm,-,N/A,,Scattered Clouds,0,2013-06-26 11:56:00
7:16 AM,64.4,62.6,94,29.71,10.0,South,3.5,-,N/A,,Scattered Clouds,190,2013-06-26 12:16:00
7:35 AM,66.2,62.6,88,29.71,10.0,South,3.5,-,N/A,,Clear,180,2013-06-26 12:35:00
7:56 AM,68.0,62.6,83,29.71,10.0,SW,4.6,-,N/A,,Scattered Clouds,220,2013-06-26 12:56:00
8:16 AM,68.0,62.6,83,29.71,10.0,SW,4.6,-,N/A,,Mostly Cloudy,220,2013-06-26 13:16:00
8:35 AM,68.0,62.6,83,29.72,10.0,SW,3.5,-,N/A,,Overcast,230,2013-06-26 13:35:00
8:55 AM,68.0,64.4,88,29.73,10.0,Calm,Calm,-,N/A,,Overcast,0,2013-06-26 13:55:00
9:16 AM,69.8,64.4,83,29.73,10.0,SSW,3.5,-,N/A,,Mostly Cloudy,210,2013-06-26 14:16:00
9:35 AM,69.8,64.4,83,29.73,10.0,WSW,4.6,-,N/A,,Overcast,250,2013-06-26 14:35:00
9:55 AM,69.8,64.4,83,29.74,10.0,West,4.6,-,N/A,,Overcast,270,2013-06-26 14:55:00
10:16 AM,71.6,64.4,78,29.74,10.0,West,5.8,-,N/A,,Overcast,260,2013-06-26 15:16:00
10:35 AM,73.4,66.2,78,29.75,10.0,WNW,4.6,-,N/A,,Mostly Cloudy,290,2013-06-26 15:35:00
10:55 AM,73.4,64.4,73,29.75,10.0,WNW,6.9,-,N/A,,Mostly Cloudy,290,2013-06-26 15:55:00
11:16 AM,73.4,64.4,73,29.76,10.0,NW,8.1,-,N/A,,Mostly Cloudy,320,2013-06-26 16:16:00
11:35 AM,73.4,64.4,73,29.77,10.0,WNW,4.6,-,N/A,,Scattered Clouds,300,2013-06-26 16:35:00
11:55 AM,73.4,64.4,73,29.77,10.0,NW,5.8,-,N/A,,Scattered Clouds,310,2013-06-26 16:55:00
12:15 PM,75.2,64.4,69,29.77,10.0,West,4.6,-,N/A,,Mostly Cloudy,280,2013-06-26 17:15:00
12:36 PM,75.2,64.4,69,29.78,10.0,WNW,9.2,-,N/A,,Mostly Cloudy,290,2013-06-26 17:36:00
12:55 PM,75.2,64.4,69,29.78,10.0,West,10.4,-,N/A,,Mostly Cloudy,270,2013-06-26 17:55:00
1:15 PM,77.0,66.2,69,29.79,10.0,West,12.7,-,N/A,,Scattered Clouds,270,2013-06-26 18:15:00
1:36 PM,77.0,64.4,65,29.79,10.0,WNW,13.8,17.3,N/A,,Scattered Clouds,300,2013-06-26 18:36:00
1:55 PM,77.0,66.2,69,29.79,10.0,WNW,10.4,-,N/A,,Scattered Clouds,300,2013-06-26 18:55:00
2:15 PM,77.0,64.4,65,29.79,10.0,NW,11.5,16.1,N/A,,Clear,310,2013-06-26 19:15:00
2:36 PM,77.0,64.4,65,29.79,10.0,NW,10.4,-,N/A,,Scattered Clouds,310,2013-06-26 19:36:00
2:55 PM,77.0,64.4,65,29.80,10.0,NW,12.7,18.4,N/A,,Scattered Clouds,310,2013-06-26 19:55:00
3:15 PM,78.8,64.4,61,29.80,10.0,WNW,15.0,20.7,N/A,,Scattered Clouds,300,2013-06-26 20:15:00
3:36 PM,78.8,64.4,61,29.79,10.0,WNW,15.0,-,N/A,,Scattered Clouds,300,2013-06-26 20:36:00
3:55 PM,80.6,64.4,58,29.78,10.0,NNW,11.5,18.4,N/A,,Scattered Clouds,340,2013-06-26 20:55:00
4:15 PM,78.8,64.4,61,29.79,10.0,NW,12.7,-,N/A,,Scattered Clouds,310,2013-06-26 21:15:00
4:35 PM,80.6,64.4,58,29.79,10.0,NNW,11.5,16.1,N/A,,Scattered Clouds,330,2013-06-26 21:35:00
4:55 PM,80.6,62.6,54,29.79,10.0,WNW,12.7,17.3,N/A,,Scattered Clouds,300,2013-06-26 21:55:00
5:15 PM,80.6,60.8,51,29.79,10.0,NW,12.7,16.1,N/A,,Clear,310,2013-06-26 22:15:00
5:36 PM,80.6,62.6,54,29.79,10.0,NW,10.4,-,N/A,,Clear,320,2013-06-26 22:36:00
5:55 PM,80.6,60.8,51,29.79,10.0,NW,11.5,-,N/A,,Clear,320,2013-06-26 22:55:00
6:15 PM,80.6,59.0,48,29.79,10.0,NW,9.2,-,N/A,,Clear,320,2013-06-26 23:15:00
6:36 PM,80.6,59.0,48,29.79,10.0,NW,6.9,-,N/A,,Clear,320,2013-06-26 23:36:00
6:55 PM,80.6,60.8,51,29.78,10.0,NNW,6.9,-,N/A,,Clear,330,2013-06-26 23:55:00
7:15 PM,80.6,60.8,51,29.80,10.0,WNW,6.9,-,N/A,,Clear,290,2013-06-27 00:15:00
7:36 PM,78.8,60.8,54,29.80,10.0,Calm,Calm,-,N/A,,Clear,0,2013-06-27 00:36:00
7:55 PM,78.8,62.6,57,29.81,10.0,WSW,3.5,-,N/A,,Clear,240,2013-06-27 00:55:00
8:15 PM,78.8,62.6,57,29.80,10.0,Calm,Calm,-,N/A,,Clear,0,2013-06-27 01:15:00
8:36 PM,77.0,64.4,65,29.79,10.0,SW,3.5,-,N/A,,Clear,220,2013-06-27 01:36:00
8:55 PM,77.0,66.2,69,29.79,10.0,Calm,Calm,-,N/A,,Clear,0,2013-06-27 01:55:00
9:15 PM,77.0,64.4,65,29.79,10.0,Calm,Calm,-,N/A,,Clear,0,2013-06-27 02:15:00
9:36 PM,75.2,64.4,69,29.80,10.0,NNW,3.5,-,N/A,,Clear,340,2013-06-27 02:36:00
9:55 PM,73.4,64.4,73,29.81,10.0,Calm,Calm,-,N/A,,Clear,0,2013-06-27 02:55:00
10:15 PM,73.4,64.4,73,29.81,10.0,Calm,Calm,-,N/A,,Clear,0,2013-06-27 03:15:00
10:35 PM,71.6,64.4,78,29.82,10.0,SSW,4.6,-,N/A,,Clear,210,2013-06-27 03:35:00
10:55 PM,73.4,62.6,69,29.82,10.0,SW,4.6,-,N/A,,Clear,230,2013-06-27 03:55:00
11:15 PM,71.6,62.6,73,29.81,10.0,WSW,4.6,-,N/A,,Clear,240,2013-06-27 04:15:00
11:36 PM,71.6,62.6,73,29.82,10.0,WSW,4.6,-,N/A,,Clear,240,2013-06-27 04:36:00
11:55 PM,71.6,62.6,73,29.82,10.0,West,6.9,-,N/A,,Clear,260,2013-06-27 04:55:00